sensor_id;sensor_type;location;lat;lon;timestamp;temperature;humidity
4209;DHT22;36320;48.860;2.380;2022-12-07T00:01:39;11.00;68.70
4209;DHT22;36320;48.860;2.380;2022-12-07T00:04:07;11.00;68.60
4209;DHT22;36320;48.860;2.380;2022-12-07T00:06:41;11.00;68.60
4209;DHT22;36320;48.860;2.380;2022-12-07T00:09:10;11.10;68.80
4209;DHT22;36320;48.860;2.380;2022-12-07T00:11:36;11.10;68.80
4209;DHT22;36320;48.860;2.380;2022-12-07T00:14:05;11.00;68.60
4209;DHT22;36320;48.860;2.380;2022-12-07T00:16:32;11.10;68.70
4209;DHT22;36320;48.860;2.380;2022-12-07T00:18:59;11.10;68.70
4209;DHT22;36320;48.860;2.380;2022-12-07T00:21:28;11.10;68.70
4209;DHT22;36320;48.860;2.380;2022-12-07T00:23:55;11.10;68.80
4209;DHT22;36320;48.860;2.380;2022-12-07T00:26:24;11.10;68.70
4209;DHT22;36320;48.860;2.380;2022-12-07T00:28:52;11.10;68.70
4209;DHT22;36320;48.860;2.380;2022-12-07T00:31:20;11.10;68.50
4209;DHT22;36320;48.860;2.380;2022-12-07T00:33:47;11.00;68.30
4209;DHT22;36320;48.860;2.380;2022-12-07T00:36:18;11.00;68.30
4209;DHT22;36320;48.860;2.380;2022-12-07T00:38:44;11.00;68.30
4209;DHT22;36320;48.860;2.380;2022-12-07T00:41:18;11.00;68.30
4209;DHT22;36320;48.860;2.380;2022-12-07T00:43:45;11.00;68.30
4209;DHT22;36320;48.860;2.380;2022-12-07T00:46:12;11.00;68.20
4209;DHT22;36320;48.860;2.380;2022-12-07T00:48:38;11.00;68.10
4209;DHT22;36320;48.860;2.380;2022-12-07T00:51:05;10.90;67.90
4209;DHT22;36320;48.860;2.380;2022-12-07T00:53:33;10.90;68.00
4209;DHT22;36320;48.860;2.380;2022-12-07T01:01:22;11.00;68.10
4209;DHT22;36320;48.860;2.380;2022-12-07T01:03:48;11.00;68.00
4209;DHT22;36320;48.860;2.380;2022-12-07T01:06:16;11.00;68.00
4209;DHT22;36320;48.860;2.380;2022-12-07T01:08:42;10.90;67.70
4209;DHT22;36320;48.860;2.380;2022-12-07T01:11:11;11.00;68.00
4209;DHT22;36320;48.860;2.380;2022-12-07T01:13:37;11.00;68.00
4209;DHT22;36320;48.860;2.380;2022-12-07T01:16:05;11.00;68.00
4209;DHT22;36320;48.860;2.380;2022-12-07T01:18:34;11.00;68.00
4209;DHT22;36320;48.860;2.380;2022-12-07T01:21:13;11.10;68.80
4209;DHT22;36320;48.860;2.380;2022-12-07T01:23:39;11.10;67.90
4209;DHT22;36320;48.860;2.380;2022-12-07T01:26:11;11.20;67.90
4209;DHT22;36320;48.860;2.380;2022-12-07T01:28:37;11.10;67.80
4209;DHT22;36320;48.860;2.380;2022-12-07T01:31:16;11.10;67.80
4209;DHT22;36320;48.860;2.380;2022-12-07T01:33:46;11.10;67.80
4209;DHT22;36320;48.860;2.380;2022-12-07T01:36:16;11.10;67.80
4209;DHT22;36320;48.860;2.380;2022-12-07T01:38:43;11.10;67.70
4209;DHT22;36320;48.860;2.380;2022-12-07T01:41:09;11.10;67.60
4209;DHT22;36320;48.860;2.380;2022-12-07T01:43:35;11.10;68.30
4209;DHT22;36320;48.860;2.380;2022-12-07T01:46:02;11.10;67.60
4209;DHT22;36320;48.860;2.380;2022-12-07T01:48:38;11.10;67.60
4209;DHT22;36320;48.860;2.380;2022-12-07T01:51:10;11.10;67.60
4209;DHT22;36320;48.860;2.380;2022-12-07T01:53:40;11.10;67.60
4209;DHT22;36320;48.860;2.380;2022-12-07T01:56:10;11.10;67.50
4209;DHT22;36320;48.860;2.380;2022-12-07T01:58:37;11.00;67.40
4209;DHT22;36320;48.860;2.380;2022-12-07T02:01:03;11.00;67.30
4209;DHT22;36320;48.860;2.380;2022-12-07T02:03:43;10.90;67.20
4209;DHT22;36320;48.860;2.380;2022-12-07T02:06:12;10.80;67.10
4209;DHT22;36320;48.860;2.380;2022-12-07T02:08:38;10.70;67.20
4209;DHT22;36320;48.860;2.380;2022-12-07T02:11:05;10.70;67.20
4209;DHT22;36320;48.860;2.380;2022-12-07T02:13:36;10.70;67.40
4209;DHT22;36320;48.860;2.380;2022-12-07T02:29:45;10.60;67.10
4209;DHT22;36320;48.860;2.380;2022-12-07T02:32:18;10.60;67.10
4209;DHT22;36320;48.860;2.380;2022-12-07T02:35:09;10.60;67.20
4209;DHT22;36320;48.860;2.380;2022-12-07T02:37:58;10.60;67.10
4209;DHT22;36320;48.860;2.380;2022-12-07T02:40:44;10.60;67.10
4209;DHT22;36320;48.860;2.380;2022-12-07T02:43:23;10.50;67.00
4209;DHT22;36320;48.860;2.380;2022-12-07T02:45:51;10.40;66.90
4209;DHT22;36320;48.860;2.380;2022-12-07T02:48:18;10.40;67.00
4209;DHT22;36320;48.860;2.380;2022-12-07T02:50:48;10.50;67.20
4209;DHT22;36320;48.860;2.380;2022-12-07T02:53:31;10.50;67.30
4209;DHT22;36320;48.860;2.380;2022-12-07T02:55:59;10.50;67.30
4209;DHT22;36320;48.860;2.380;2022-12-07T03:07:50;10.60;67.20
4209;DHT22;36320;48.860;2.380;2022-12-07T03:10:38;10.60;67.10
4209;DHT22;36320;48.860;2.380;2022-12-07T03:16:20;10.60;67.10
4209;DHT22;36320;48.860;2.380;2022-12-07T03:19:14;10.60;67.00
4209;DHT22;36320;48.860;2.380;2022-12-07T03:22:04;10.60;67.00
4209;DHT22;36320;48.860;2.380;2022-12-07T03:24:33;10.60;66.90
4209;DHT22;36320;48.860;2.380;2022-12-07T03:27:06;10.60;66.90
4209;DHT22;36320;48.860;2.380;2022-12-07T03:29:41;10.60;66.90
4209;DHT22;36320;48.860;2.380;2022-12-07T03:32:21;10.50;66.80
4209;DHT22;36320;48.860;2.380;2022-12-07T03:35:16;10.50;66.80
4209;DHT22;36320;48.860;2.380;2022-12-07T03:40:37;10.50;67.00
4209;DHT22;36320;48.860;2.380;2022-12-07T03:43:05;10.50;66.90
4209;DHT22;36320;48.860;2.380;2022-12-07T03:48:16;10.50;67.80
4209;DHT22;36320;48.860;2.380;2022-12-07T03:50:54;10.50;67.00
4209;DHT22;36320;48.860;2.380;2022-12-07T03:53:36;10.50;66.90
4209;DHT22;36320;48.860;2.380;2022-12-07T03:56:05;10.50;66.90
4209;DHT22;36320;48.860;2.380;2022-12-07T03:58:32;10.70;67.10
4209;DHT22;36320;48.860;2.380;2022-12-07T04:00:58;10.40;66.70
4209;DHT22;36320;48.860;2.380;2022-12-07T04:03:24;10.50;66.70
4209;DHT22;36320;48.860;2.380;2022-12-07T04:05:50;10.50;66.70
4209;DHT22;36320;48.860;2.380;2022-12-07T04:08:15;10.40;66.70
4209;DHT22;36320;48.860;2.380;2022-12-07T04:10:41;10.40;66.80
4209;DHT22;36320;48.860;2.380;2022-12-07T04:13:07;10.40;67.00
4209;DHT22;36320;48.860;2.380;2022-12-07T04:15:32;10.50;67.10
4209;DHT22;36320;48.860;2.380;2022-12-07T04:17:58;10.50;67.00
4209;DHT22;36320;48.860;2.380;2022-12-07T04:20:23;10.60;66.80
4209;DHT22;36320;48.860;2.380;2022-12-07T04:22:50;10.60;66.80
4209;DHT22;36320;48.860;2.380;2022-12-07T04:25:16;10.60;66.80
4209;DHT22;36320;48.860;2.380;2022-12-07T04:27:41;10.60;66.60
4209;DHT22;36320;48.860;2.380;2022-12-07T04:30:07;10.60;66.60
4209;DHT22;36320;48.860;2.380;2022-12-07T04:32:33;10.60;66.50
4209;DHT22;36320;48.860;2.380;2022-12-07T04:34:58;10.60;66.30
4209;DHT22;36320;48.860;2.380;2022-12-07T04:37:24;10.60;66.30
4209;DHT22;36320;48.860;2.380;2022-12-07T04:39:50;10.60;66.30
4209;DHT22;36320;48.860;2.380;2022-12-07T04:42:15;10.50;66.40
4209;DHT22;36320;48.860;2.380;2022-12-07T04:44:41;10.60;66.40
4209;DHT22;36320;48.860;2.380;2022-12-07T04:47:07;10.50;66.20
4209;DHT22;36320;48.860;2.380;2022-12-07T04:49:33;10.50;66.00
4209;DHT22;36320;48.860;2.380;2022-12-07T04:51:58;10.50;66.00
4209;DHT22;36320;48.860;2.380;2022-12-07T04:54:24;10.50;66.10
4209;DHT22;36320;48.860;2.380;2022-12-07T04:56:50;10.50;66.20
4209;DHT22;36320;48.860;2.380;2022-12-07T04:59:16;10.50;66.20
4209;DHT22;36320;48.860;2.380;2022-12-07T05:01:42;10.50;66.30
4209;DHT22;36320;48.860;2.380;2022-12-07T05:04:08;10.50;66.30
4209;DHT22;36320;48.860;2.380;2022-12-07T05:06:34;10.50;66.40
4209;DHT22;36320;48.860;2.380;2022-12-07T05:09:00;10.70;66.60
4209;DHT22;36320;48.860;2.380;2022-12-07T05:11:26;10.60;66.60
4209;DHT22;36320;48.860;2.380;2022-12-07T05:14:12;10.60;66.30
4209;DHT22;36320;48.860;2.380;2022-12-07T05:16:38;10.60;66.20
4209;DHT22;36320;48.860;2.380;2022-12-07T05:19:05;10.50;66.00
4209;DHT22;36320;48.860;2.380;2022-12-07T05:21:31;10.50;66.10
4209;DHT22;36320;48.860;2.380;2022-12-07T05:23:56;10.50;66.20
4209;DHT22;36320;48.860;2.380;2022-12-07T05:26:22;10.50;66.40
4209;DHT22;36320;48.860;2.380;2022-12-07T05:28:52;10.60;66.50
4209;DHT22;36320;48.860;2.380;2022-12-07T05:31:18;10.60;66.40
4209;DHT22;36320;48.860;2.380;2022-12-07T05:33:44;10.60;66.30
4209;DHT22;36320;48.860;2.380;2022-12-07T05:36:09;10.60;66.30
4209;DHT22;36320;48.860;2.380;2022-12-07T05:38:35;10.60;66.40
4209;DHT22;36320;48.860;2.380;2022-12-07T05:41:06;10.60;66.50
4209;DHT22;36320;48.860;2.380;2022-12-07T05:43:32;10.70;66.70
4209;DHT22;36320;48.860;2.380;2022-12-07T05:45:58;10.70;66.70
4209;DHT22;36320;48.860;2.380;2022-12-07T05:48:24;10.70;66.80
4209;DHT22;36320;48.860;2.380;2022-12-07T05:50:51;10.70;66.90
4209;DHT22;36320;48.860;2.380;2022-12-07T05:53:17;10.70;67.00
4209;DHT22;36320;48.860;2.380;2022-12-07T05:55:43;10.70;67.10
4209;DHT22;36320;48.860;2.380;2022-12-07T05:58:09;10.70;67.20
4209;DHT22;36320;48.860;2.380;2022-12-07T06:00:55;10.70;67.30
4209;DHT22;36320;48.860;2.380;2022-12-07T06:03:20;10.70;67.20
4209;DHT22;36320;48.860;2.380;2022-12-07T06:05:46;10.70;67.40
4209;DHT22;36320;48.860;2.380;2022-12-07T06:08:12;10.70;67.50
4209;DHT22;36320;48.860;2.380;2022-12-07T06:10:40;10.70;67.30
4209;DHT22;36320;48.860;2.380;2022-12-07T06:13:07;10.70;67.20
4209;DHT22;36320;48.860;2.380;2022-12-07T06:15:32;10.70;67.20
4209;DHT22;36320;48.860;2.380;2022-12-07T06:17:58;10.70;67.30
4209;DHT22;36320;48.860;2.380;2022-12-07T06:20:24;10.70;67.30
4209;DHT22;36320;48.860;2.380;2022-12-07T06:22:49;10.70;67.20
4209;DHT22;36320;48.860;2.380;2022-12-07T06:25:15;10.70;67.40
4209;DHT22;36320;48.860;2.380;2022-12-07T06:27:40;10.80;67.30
4209;DHT22;36320;48.860;2.380;2022-12-07T06:30:06;10.70;67.20
4209;DHT22;36320;48.860;2.380;2022-12-07T06:32:36;10.80;67.40
4209;DHT22;36320;48.860;2.380;2022-12-07T06:35:04;13.10;69.80
4209;DHT22;36320;48.860;2.380;2022-12-07T06:37:30;10.80;67.40
4209;DHT22;36320;48.860;2.380;2022-12-07T06:39:55;10.80;67.50
4209;DHT22;36320;48.860;2.380;2022-12-07T06:42:21;10.80;67.50
4209;DHT22;36320;48.860;2.380;2022-12-07T06:44:47;10.80;67.30
4209;DHT22;36320;48.860;2.380;2022-12-07T06:47:13;10.80;67.30
4209;DHT22;36320;48.860;2.380;2022-12-07T06:49:38;10.80;67.10
4209;DHT22;36320;48.860;2.380;2022-12-07T06:52:04;10.80;67.30
4209;DHT22;36320;48.860;2.380;2022-12-07T06:54:31;10.80;67.30
4209;DHT22;36320;48.860;2.380;2022-12-07T06:56:57;10.80;67.30
4209;DHT22;36320;48.860;2.380;2022-12-07T06:59:22;10.90;67.50
4209;DHT22;36320;48.860;2.380;2022-12-07T07:01:48;10.90;67.50
4209;DHT22;36320;48.860;2.380;2022-12-07T07:04:14;10.90;67.50
4209;DHT22;36320;48.860;2.380;2022-12-07T07:06:40;10.90;67.40
4209;DHT22;36320;48.860;2.380;2022-12-07T07:09:05;10.90;67.50
4209;DHT22;36320;48.860;2.380;2022-12-07T07:11:31;11.00;67.60
4209;DHT22;36320;48.860;2.380;2022-12-07T07:13:57;11.00;67.70
4209;DHT22;36320;48.860;2.380;2022-12-07T07:16:28;11.00;67.70
4209;DHT22;36320;48.860;2.380;2022-12-07T07:18:54;11.00;67.70
4209;DHT22;36320;48.860;2.380;2022-12-07T07:21:20;11.10;67.30
4209;DHT22;36320;48.860;2.380;2022-12-07T07:23:45;11.00;67.20
4209;DHT22;36320;48.860;2.380;2022-12-07T07:26:11;11.00;67.10
4209;DHT22;36320;48.860;2.380;2022-12-07T07:28:37;11.10;67.30
4209;DHT22;36320;48.860;2.380;2022-12-07T07:31:03;11.10;67.40
4209;DHT22;36320;48.860;2.380;2022-12-07T07:33:28;11.10;67.50
4209;DHT22;36320;48.860;2.380;2022-12-07T07:35:54;11.10;67.50
4209;DHT22;36320;48.860;2.380;2022-12-07T07:38:19;11.10;67.50
4209;DHT22;36320;48.860;2.380;2022-12-07T07:40:45;11.20;67.60
4209;DHT22;36320;48.860;2.380;2022-12-07T07:43:11;11.20;67.60
4209;DHT22;36320;48.860;2.380;2022-12-07T07:45:39;11.20;67.60
4209;DHT22;36320;48.860;2.380;2022-12-07T07:48:06;11.20;67.50
4209;DHT22;36320;48.860;2.380;2022-12-07T07:50:31;11.20;67.40
4209;DHT22;36320;48.860;2.380;2022-12-07T07:52:58;11.20;67.40
4209;DHT22;36320;48.860;2.380;2022-12-07T07:55:23;11.20;67.50
4209;DHT22;36320;48.860;2.380;2022-12-07T07:57:49;11.20;67.50
4209;DHT22;36320;48.860;2.380;2022-12-07T08:00:15;11.20;67.50
4209;DHT22;36320;48.860;2.380;2022-12-07T08:02:42;11.20;67.60
4209;DHT22;36320;48.860;2.380;2022-12-07T08:05:09;11.20;67.80
4209;DHT22;36320;48.860;2.380;2022-12-07T08:07:35;11.30;67.90
4209;DHT22;36320;48.860;2.380;2022-12-07T08:10:01;11.30;67.80
4209;DHT22;36320;48.860;2.380;2022-12-07T08:12:26;11.40;67.80
4209;DHT22;36320;48.860;2.380;2022-12-07T08:14:52;11.40;67.60
4209;DHT22;36320;48.860;2.380;2022-12-07T08:17:18;11.40;67.50
4209;DHT22;36320;48.860;2.380;2022-12-07T08:19:43;11.40;67.50
4209;DHT22;36320;48.860;2.380;2022-12-07T08:22:09;11.40;67.50
4209;DHT22;36320;48.860;2.380;2022-12-07T08:24:35;11.40;67.50
4209;DHT22;36320;48.860;2.380;2022-12-07T08:27:02;11.40;67.60
4209;DHT22;36320;48.860;2.380;2022-12-07T08:29:27;11.40;67.30
4209;DHT22;36320;48.860;2.380;2022-12-07T08:31:53;11.40;67.40
4209;DHT22;36320;48.860;2.380;2022-12-07T08:34:19;11.40;67.10
4209;DHT22;36320;48.860;2.380;2022-12-07T08:36:44;11.30;66.90
4209;DHT22;36320;48.860;2.380;2022-12-07T08:39:10;11.30;66.90
4209;DHT22;36320;48.860;2.380;2022-12-07T08:41:36;11.30;66.90
4209;DHT22;36320;48.860;2.380;2022-12-07T08:44:03;11.40;67.10
4209;DHT22;36320;48.860;2.380;2022-12-07T08:46:37;11.40;67.10
4209;DHT22;36320;48.860;2.380;2022-12-07T08:51:32;11.40;66.70
4209;DHT22;36320;48.860;2.380;2022-12-07T08:53:59;11.30;66.60
4209;DHT22;36320;48.860;2.380;2022-12-07T08:56:26;11.30;66.60
4209;DHT22;36320;48.860;2.380;2022-12-07T08:58:53;11.30;66.60
4209;DHT22;36320;48.860;2.380;2022-12-07T09:01:18;11.30;66.60
4209;DHT22;36320;48.860;2.380;2022-12-07T09:03:44;11.30;66.80
4209;DHT22;36320;48.860;2.380;2022-12-07T09:06:10;11.30;66.60
4209;DHT22;36320;48.860;2.380;2022-12-07T09:08:43;11.30;66.50
4209;DHT22;36320;48.860;2.380;2022-12-07T09:11:11;11.30;66.40
4209;DHT22;36320;48.860;2.380;2022-12-07T09:13:36;11.30;66.50
4209;DHT22;36320;48.860;2.380;2022-12-07T09:16:05;11.30;66.60
4209;DHT22;36320;48.860;2.380;2022-12-07T09:18:31;11.30;66.50
4209;DHT22;36320;48.860;2.380;2022-12-07T09:20:57;11.30;66.50
4209;DHT22;36320;48.860;2.380;2022-12-07T09:23:22;11.30;66.60
4209;DHT22;36320;48.860;2.380;2022-12-07T09:25:48;11.30;66.60
4209;DHT22;36320;48.860;2.380;2022-12-07T09:28:14;11.40;66.70
4209;DHT22;36320;48.860;2.380;2022-12-07T09:30:48;11.30;66.40
4209;DHT22;36320;48.860;2.380;2022-12-07T09:33:14;11.30;67.10
4209;DHT22;36320;48.860;2.380;2022-12-07T09:35:47;11.30;66.30
4209;DHT22;36320;48.860;2.380;2022-12-07T09:38:13;11.20;66.40
4209;DHT22;36320;48.860;2.380;2022-12-07T09:40:39;11.30;66.70
4209;DHT22;36320;48.860;2.380;2022-12-07T09:43:11;11.30;66.80
4209;DHT22;36320;48.860;2.380;2022-12-07T09:45:39;11.30;66.80
4209;DHT22;36320;48.860;2.380;2022-12-07T09:48:09;11.30;66.80
4209;DHT22;36320;48.860;2.380;2022-12-07T09:50:40;11.30;66.80
4209;DHT22;36320;48.860;2.380;2022-12-07T09:53:28;11.30;67.00
4209;DHT22;36320;48.860;2.380;2022-12-07T09:55:55;11.40;67.30
4209;DHT22;36320;48.860;2.380;2022-12-07T09:58:24;11.50;67.20
4209;DHT22;36320;48.860;2.380;2022-12-07T10:00:57;11.40;67.00
4209;DHT22;36320;48.860;2.380;2022-12-07T10:03:26;11.40;67.10
4209;DHT22;36320;48.860;2.380;2022-12-07T10:05:53;11.40;67.10
4209;DHT22;36320;48.860;2.380;2022-12-07T10:08:19;11.50;67.40
4209;DHT22;36320;48.860;2.380;2022-12-07T10:10:52;11.50;67.60
4209;DHT22;36320;48.860;2.380;2022-12-07T10:15:59;11.30;67.70
4209;DHT22;36320;48.860;2.380;2022-12-07T10:18:40;11.60;68.00
4209;DHT22;36320;48.860;2.380;2022-12-07T10:23:41;11.70;68.30
4209;DHT22;36320;48.860;2.380;2022-12-07T10:26:56;11.70;68.20
4209;DHT22;36320;48.860;2.380;2022-12-07T10:29:37;12.20;68.70
4209;DHT22;36320;48.860;2.380;2022-12-07T10:34:43;11.60;67.50
4209;DHT22;36320;48.860;2.380;2022-12-07T10:37:19;11.80;67.80
4209;DHT22;36320;48.860;2.380;2022-12-07T10:39:54;11.80;67.80
4209;DHT22;36320;48.860;2.380;2022-12-07T10:42:31;11.80;67.60
4209;DHT22;36320;48.860;2.380;2022-12-07T11:08:01;11.90;67.40
4209;DHT22;36320;48.860;2.380;2022-12-07T11:10:53;11.90;67.50
4209;DHT22;36320;48.860;2.380;2022-12-07T11:16:21;11.90;67.40
4209;DHT22;36320;48.860;2.380;2022-12-07T11:22:03;11.80;67.30
4209;DHT22;36320;48.860;2.380;2022-12-07T11:25:00;11.80;67.50
4209;DHT22;36320;48.860;2.380;2022-12-07T11:28:35;11.80;67.60
4209;DHT22;36320;48.860;2.380;2022-12-07T11:33:22;11.80;67.60
4209;DHT22;36320;48.860;2.380;2022-12-07T11:38:28;11.80;67.70
4209;DHT22;36320;48.860;2.380;2022-12-07T11:41:02;11.80;67.80
4209;DHT22;36320;48.860;2.380;2022-12-07T11:44:06;11.90;67.80
4209;DHT22;36320;48.860;2.380;2022-12-07T11:47:27;11.90;68.00
4209;DHT22;36320;48.860;2.380;2022-12-07T12:03:45;10.30;69.00
4209;DHT22;36320;48.860;2.380;2022-12-07T12:06:11;10.70;70.10
4209;DHT22;36320;48.860;2.380;2022-12-07T12:08:54;10.60;70.00
4209;DHT22;36320;48.860;2.380;2022-12-07T12:11:32;10.70;70.40
4209;DHT22;36320;48.860;2.380;2022-12-07T12:22:44;10.80;70.60
4209;DHT22;36320;48.860;2.380;2022-12-07T12:25:24;11.00;70.60
4209;DHT22;36320;48.860;2.380;2022-12-07T12:27:52;11.10;70.40
4209;DHT22;36320;48.860;2.380;2022-12-07T12:30:38;11.20;70.50
4209;DHT22;36320;48.860;2.380;2022-12-07T12:33:21;11.50;70.50
4209;DHT22;36320;48.860;2.380;2022-12-07T12:52:00;10.40;71.10
4209;DHT22;36320;48.860;2.380;2022-12-07T12:54:35;10.60;71.50
4209;DHT22;36320;48.860;2.380;2022-12-07T13:02:29;11.20;70.70
4209;DHT22;36320;48.860;2.380;2022-12-07T13:05:18;11.10;70.60
4209;DHT22;36320;48.860;2.380;2022-12-07T13:15:45;11.10;70.60
4209;DHT22;36320;48.860;2.380;2022-12-07T13:29:02;10.70;71.60
4209;DHT22;36320;48.860;2.380;2022-12-07T13:31:35;10.90;71.50
4209;DHT22;36320;48.860;2.380;2022-12-07T13:34:27;10.80;71.20
4209;DHT22;36320;48.860;2.380;2022-12-07T13:36:52;10.60;71.30
4209;DHT22;36320;48.860;2.380;2022-12-07T13:39:21;10.50;71.80
4209;DHT22;36320;48.860;2.380;2022-12-07T13:41:58;10.50;71.90
4209;DHT22;36320;48.860;2.380;2022-12-07T13:44:27;11.00;72.50
4209;DHT22;36320;48.860;2.380;2022-12-07T13:49:28;10.70;71.80
4209;DHT22;36320;48.860;2.380;2022-12-07T13:51:54;10.70;71.50
4209;DHT22;36320;48.860;2.380;2022-12-07T13:54:21;10.70;71.60
4209;DHT22;36320;48.860;2.380;2022-12-07T13:56:52;10.70;71.50
4209;DHT22;36320;48.860;2.380;2022-12-07T13:59:23;11.20;71.80
4209;DHT22;36320;48.860;2.380;2022-12-07T14:01:51;11.70;70.70
4209;DHT22;36320;48.860;2.380;2022-12-07T14:04:33;11.60;70.00
4209;DHT22;36320;48.860;2.380;2022-12-07T14:07:00;11.40;69.90
4209;DHT22;36320;48.860;2.380;2022-12-07T14:09:28;11.30;70.10
4209;DHT22;36320;48.860;2.380;2022-12-07T14:11:56;11.40;70.50
4209;DHT22;36320;48.860;2.380;2022-12-07T14:14:26;11.50;70.10
4209;DHT22;36320;48.860;2.380;2022-12-07T14:19:57;11.60;70.10
4209;DHT22;36320;48.860;2.380;2022-12-07T14:22:34;11.50;69.80
4209;DHT22;36320;48.860;2.380;2022-12-07T14:25:20;11.60;69.80
4209;DHT22;36320;48.860;2.380;2022-12-07T14:30:16;11.90;69.40
4209;DHT22;36320;48.860;2.380;2022-12-07T14:32:43;11.90;68.90
4209;DHT22;36320;48.860;2.380;2022-12-07T14:35:18;11.90;68.80
4209;DHT22;36320;48.860;2.380;2022-12-07T14:37:47;11.90;68.70
4209;DHT22;36320;48.860;2.380;2022-12-07T14:40:32;11.90;68.70
4209;DHT22;36320;48.860;2.380;2022-12-07T14:43:18;11.90;68.70
4209;DHT22;36320;48.860;2.380;2022-12-07T14:45:44;11.90;68.80
4209;DHT22;36320;48.860;2.380;2022-12-07T14:48:12;11.70;68.60
4209;DHT22;36320;48.860;2.380;2022-12-07T14:50:42;11.60;68.90
4209;DHT22;36320;48.860;2.380;2022-12-07T14:53:18;11.30;69.00
4209;DHT22;36320;48.860;2.380;2022-12-07T14:55:47;11.20;69.30
4209;DHT22;36320;48.860;2.380;2022-12-07T14:58:14;11.40;69.50
4209;DHT22;36320;48.860;2.380;2022-12-07T15:00:43;11.50;70.30
4209;DHT22;36320;48.860;2.380;2022-12-07T15:03:10;11.40;69.10
4209;DHT22;36320;48.860;2.380;2022-12-07T15:05:37;11.10;69.30
4209;DHT22;36320;48.860;2.380;2022-12-07T15:08:03;10.90;70.70
4209;DHT22;36320;48.860;2.380;2022-12-07T15:10:32;10.90;70.60
4209;DHT22;36320;48.860;2.380;2022-12-07T15:12:59;10.90;70.30
4209;DHT22;36320;48.860;2.380;2022-12-07T15:15:45;10.80;70.40
4209;DHT22;36320;48.860;2.380;2022-12-07T15:18:11;11.00;70.60
4209;DHT22;36320;48.860;2.380;2022-12-07T15:20:37;10.90;70.00
4209;DHT22;36320;48.860;2.380;2022-12-07T15:23:03;11.00;70.00
4209;DHT22;36320;48.860;2.380;2022-12-07T15:25:29;10.90;69.80
4209;DHT22;36320;48.860;2.380;2022-12-07T15:27:55;11.00;70.00
4209;DHT22;36320;48.860;2.380;2022-12-07T15:30:21;11.10;69.90
4209;DHT22;36320;48.860;2.380;2022-12-07T15:32:50;11.20;69.70
4209;DHT22;36320;48.860;2.380;2022-12-07T15:35:16;11.30;69.80
4209;DHT22;36320;48.860;2.380;2022-12-07T15:37:42;11.30;69.70
4209;DHT22;36320;48.860;2.380;2022-12-07T15:40:11;11.40;69.70
4209;DHT22;36320;48.860;2.380;2022-12-07T15:42:38;11.40;69.80
4209;DHT22;36320;48.860;2.380;2022-12-07T15:45:06;11.40;70.00
4209;DHT22;36320;48.860;2.380;2022-12-07T15:47:38;11.50;70.30
4209;DHT22;36320;48.860;2.380;2022-12-07T15:50:07;11.40;70.30
4209;DHT22;36320;48.860;2.380;2022-12-07T15:52:33;11.20;70.20
4209;DHT22;36320;48.860;2.380;2022-12-07T15:54:59;11.10;70.50
4209;DHT22;36320;48.860;2.380;2022-12-07T15:57:27;11.10;70.80
4209;DHT22;36320;48.860;2.380;2022-12-07T15:59:53;11.00;71.00
4209;DHT22;36320;48.860;2.380;2022-12-07T16:02:19;11.00;71.00
4209;DHT22;36320;48.860;2.380;2022-12-07T16:04:45;11.10;71.10
4209;DHT22;36320;48.860;2.380;2022-12-07T16:07:11;11.00;71.00
4209;DHT22;36320;48.860;2.380;2022-12-07T16:09:39;10.90;70.90
4209;DHT22;36320;48.860;2.380;2022-12-07T16:12:05;10.90;70.90
4209;DHT22;36320;48.860;2.380;2022-12-07T16:14:31;10.90;71.00
4209;DHT22;36320;48.860;2.380;2022-12-07T16:16:59;11.00;71.00
4209;DHT22;36320;48.860;2.380;2022-12-07T16:19:24;11.00;70.90
4209;DHT22;36320;48.860;2.380;2022-12-07T16:21:51;11.00;70.90
4209;DHT22;36320;48.860;2.380;2022-12-07T16:24:17;10.90;70.70
4209;DHT22;36320;48.860;2.380;2022-12-07T16:26:44;10.90;70.60
4209;DHT22;36320;48.860;2.380;2022-12-07T16:29:12;10.90;70.60
4209;DHT22;36320;48.860;2.380;2022-12-07T16:31:38;11.00;70.60
4209;DHT22;36320;48.860;2.380;2022-12-07T16:34:06;11.00;70.40
4209;DHT22;36320;48.860;2.380;2022-12-07T16:36:33;11.00;70.40
4209;DHT22;36320;48.860;2.380;2022-12-07T16:39:00;11.00;70.10
4209;DHT22;36320;48.860;2.380;2022-12-07T16:41:26;11.00;70.10
4209;DHT22;36320;48.860;2.380;2022-12-07T16:43:53;11.00;69.90
4209;DHT22;36320;48.860;2.380;2022-12-07T16:46:20;11.00;69.20
4209;DHT22;36320;48.860;2.380;2022-12-07T16:48:47;11.00;69.80
4209;DHT22;36320;48.860;2.380;2022-12-07T16:51:16;11.00;69.70
4209;DHT22;36320;48.860;2.380;2022-12-07T16:53:42;11.00;69.50
4209;DHT22;36320;48.860;2.380;2022-12-07T16:56:13;10.90;69.40
4209;DHT22;36320;48.860;2.380;2022-12-07T16:58:44;10.90;69.50
4209;DHT22;36320;48.860;2.380;2022-12-07T17:01:17;10.90;69.20
4209;DHT22;36320;48.860;2.380;2022-12-07T17:03:43;10.60;69.50
4209;DHT22;36320;48.860;2.380;2022-12-07T17:06:22;10.70;70.00
4209;DHT22;36320;48.860;2.380;2022-12-07T17:08:48;10.80;70.00
4209;DHT22;36320;48.860;2.380;2022-12-07T17:11:26;10.90;70.10
4209;DHT22;36320;48.860;2.380;2022-12-07T17:13:52;10.80;70.30
4209;DHT22;36320;48.860;2.380;2022-12-07T17:16:37;10.80;70.40
4209;DHT22;36320;48.860;2.380;2022-12-07T17:19:05;10.70;70.40
4209;DHT22;36320;48.860;2.380;2022-12-07T17:21:40;10.50;70.60
4209;DHT22;36320;48.860;2.380;2022-12-07T17:24:08;10.30;70.70
4209;DHT22;36320;48.860;2.380;2022-12-07T17:26:35;10.60;71.00
4209;DHT22;36320;48.860;2.380;2022-12-07T17:29:02;10.50;70.90
4209;DHT22;36320;48.860;2.380;2022-12-07T17:31:28;10.40;71.20
4209;DHT22;36320;48.860;2.380;2022-12-07T17:33:54;10.40;71.40
4209;DHT22;36320;48.860;2.380;2022-12-07T17:36:29;10.50;71.40
4209;DHT22;36320;48.860;2.380;2022-12-07T17:38:56;10.60;71.20
4209;DHT22;36320;48.860;2.380;2022-12-07T17:41:27;10.60;71.00
4209;DHT22;36320;48.860;2.380;2022-12-07T17:44:17;10.70;70.90
4209;DHT22;36320;48.860;2.380;2022-12-07T17:46:47;10.70;70.60
4209;DHT22;36320;48.860;2.380;2022-12-07T17:49:14;10.60;70.50
4209;DHT22;36320;48.860;2.380;2022-12-07T17:51:40;10.60;70.50
4209;DHT22;36320;48.860;2.380;2022-12-07T17:54:29;10.60;70.50
4209;DHT22;36320;48.860;2.380;2022-12-07T17:56:55;10.60;70.40
4209;DHT22;36320;48.860;2.380;2022-12-07T17:59:21;10.60;70.40
4209;DHT22;36320;48.860;2.380;2022-12-07T18:01:47;10.70;70.40
4209;DHT22;36320;48.860;2.380;2022-12-07T18:04:13;10.60;70.30
4209;DHT22;36320;48.860;2.380;2022-12-07T18:06:39;10.50;70.40
4209;DHT22;36320;48.860;2.380;2022-12-07T18:09:06;10.60;70.60
4209;DHT22;36320;48.860;2.380;2022-12-07T18:11:32;10.50;70.60
4209;DHT22;36320;48.860;2.380;2022-12-07T18:13:58;10.50;70.70
4209;DHT22;36320;48.860;2.380;2022-12-07T18:16:26;10.40;70.60
4209;DHT22;36320;48.860;2.380;2022-12-07T18:18:53;10.00;70.60
4209;DHT22;36320;48.860;2.380;2022-12-07T18:21:25;9.90;72.50
4209;DHT22;36320;48.860;2.380;2022-12-07T18:23:53;10.00;71.80
4209;DHT22;36320;48.860;2.380;2022-12-07T18:26:21;10.00;72.10
4209;DHT22;36320;48.860;2.380;2022-12-07T18:28:47;10.10;72.10
4209;DHT22;36320;48.860;2.380;2022-12-07T18:31:15;10.30;71.90
4209;DHT22;36320;48.860;2.380;2022-12-07T18:33:42;10.30;71.60